Time;durP1;ratioP1;P1;durP2;ratioP2;P2;SDS_P1;SDS_P2;PMS_P1;PMS_P2;Temp;Humidity;BMP_temperature;BMP_pressure;BME280_temperature;BME280_humidity;BME280_pressure;Samples;Min_cycle;Max_cycle;Signal;HPM_P1;HPM_P2
2023/07/14 00:01:22;;;;;;;2.10;2.00;;;17.80;55.20;;;17.97;52.63;98210.06;5027323;28;20447;-74
2023/07/14 00:03:53;;;;;;;3.67;1.90;;;17.80;55.10;;;17.88;53.04;98206.13;5031108;28;20461;-74
2023/07/14 00:06:22;;;;;;;1.77;1.63;;;17.80;55.40;;;17.70;53.28;98211.69;5029433;28;20459;-72
2023/07/14 00:08:51;;;;;;;2.13;1.93;;;17.70;55.50;;;17.66;53.36;98207.84;5035030;28;20454;-73
2023/07/14 00:11:21;;;;;;;3.63;1.73;;;17.60;55.60;;;17.48;54.04;98203.53;5031520;28;20521;-73
2023/07/14 00:13:51;;;;;;;2.73;1.87;;;17.50;56.00;;;17.43;55.00;98211.69;5039254;28;20538;-72
2023/07/14 00:16:25;;;;;;;1.77;1.60;;;17.40;56.70;;;17.30;55.42;98193.81;5029445;28;20478;-71
2023/07/14 00:18:52;;;;;;;2.63;1.80;;;17.40;57.30;;;17.20;55.78;98185.47;5035559;28;20515;-72
2023/07/14 00:21:23;;;;;;;2.13;1.90;;;17.20;57.50;;;17.38;54.39;98206.19;5029062;28;20451;-72
2023/07/14 00:23:59;;;;;;;2.30;1.67;;;17.30;57.00;;;17.35;54.64;98201.19;5031357;28;20450;-73
2023/07/14 00:26:27;;;;;;;3.33;2.00;;;17.30;57.10;;;17.35;54.64;98206.66;5036265;28;20460;-73
2023/07/14 00:28:54;;;;;;;3.80;1.80;;;17.30;57.00;;;17.07;54.60;98192.16;5030125;28;20557;-73
2023/07/14 00:31:23;;;;;;;1.70;1.60;;;17.20;57.20;;;17.15;55.83;98201.81;5030102;28;20812;-72
2023/07/14 00:33:53;;;;;;;2.60;1.77;;;17.10;57.70;;;17.07;55.49;98203.06;5030610;28;20788;-72
2023/07/14 00:36:22;;;;;;;2.93;1.70;;;17.10;57.90;;;16.98;55.42;98172.63;5029076;28;20539;-74
2023/07/14 00:38:50;;;;;;;3.17;1.80;;;17.00;57.80;;;17.15;56.29;98188.16;5029314;28;20458;-72
2023/07/14 00:41:21;;;;;;;1.90;1.80;;;17.10;58.50;;;17.03;56.30;98191.00;5027011;28;20798;-75
2023/07/14 00:43:49;;;;;;;3.57;1.97;;;17.10;58.50;;;16.93;57.46;98184.31;5028455;28;20500;-72
2023/07/14 00:46:26;;;;;;;5.10;2.80;;;17.00;59.10;;;16.73;57.62;98175.84;5028224;28;20482;-72
2023/07/14 00:48:56;;;;;;;2.60;2.10;;;16.90;59.50;;;16.95;57.71;98201.25;5029099;28;20548;-72
2023/07/14 00:51:26;;;;;;;2.50;1.80;;;17.00;60.00;;;16.95;58.43;98206.72;5043665;28;20451;-73
2023/07/14 00:53:56;;;;;;;2.70;2.50;;;17.00;60.50;;;16.86;58.53;98205.47;5031747;28;20463;-71
2023/07/14 00:56:37;;;;;;;3.20;1.97;;;17.00;60.90;;;16.41;58.96;98139.94;5026373;28;20828;-72
2023/07/14 00:59:14;;;;;;;4.40;2.60;;;17.00;61.50;;;16.79;59.07;98194.75;5023212;28;20515;-72
2023/07/14 01:02:20;;;;;;;2.60;2.33;;;17.00;62.00;;;16.66;59.93;98209.59;5028550;28;20502;-72
2023/07/14 01:04:53;;;;;;;2.57;2.13;;;16.90;62.70;;;16.58;60.77;98196.38;5062039;28;20547;-74
2023/07/14 01:07:28;;;;;;;4.03;2.43;;;16.80;63.70;;;16.52;60.27;98183.75;5031755;28;20449;-71
2023/07/14 01:10:00;;;;;;;3.83;1.93;;;16.70;63.90;;;16.31;60.94;98178.00;5030171;28;20961;-71
2023/07/14 01:12:29;;;;;;;2.30;2.10;;;16.70;64.80;;;16.33;61.51;98189.47;5027408;28;20528;-74
2023/07/14 01:14:58;;;;;;;2.50;2.30;;;16.60;65.60;;;16.23;61.96;98186.56;5029190;28;20490;-72
2023/07/14 01:17:27;;;;;;;2.40;2.20;;;16.50;66.30;;;16.06;62.40;98179.22;5028314;28;20535;-72
2023/07/14 01:19:58;;;;;;;2.40;2.20;;;16.40;67.10;;;16.10;62.53;98202.19;5029299;28;20467;-71
2023/07/14 01:22:34;;;;;;;3.97;2.80;;;16.30;68.40;;;16.08;62.61;98187.16;5030607;28;20485;-71
2023/07/14 01:25:15;;;;;;;3.07;2.80;;;16.30;68.80;;;16.06;62.37;98192.84;5028895;28;20996;-72
2023/07/14 01:27:46;;;;;;;4.10;3.13;;;16.30;68.70;;;16.13;62.21;98185.31;5060479;28;20538;-74
2023/07/14 01:30:14;;;;;;;4.07;2.83;;;16.30;68.70;;;16.10;62.43;98188.56;5051913;28;20446;-73
2023/07/14 01:32:46;;;;;;;3.10;2.50;;;16.30;68.80;;;16.04;62.40;98175.94;5028494;28;20544;-72
2023/07/14 01:35:15;;;;;;;3.10;2.50;;;16.30;69.10;;;16.02;62.75;98183.53;5035878;28;21023;-72
2023/07/14 01:37:42;;;;;;;2.90;2.50;;;16.30;69.40;;;15.94;62.34;98175.75;5032786;28;20945;-75
2023/07/14 01:40:15;;;;;;;2.47;2.27;;;16.30;69.70;;;16.04;62.33;98192.28;5028780;28;20488;-72
2023/07/14 01:42:46;;;;;;;2.87;2.67;;;16.30;69.60;;;16.03;62.58;98196.06;5025713;28;20945;-72
2023/07/14 01:45:17;;;;;;;2.97;2.67;;;16.30;69.90;;;15.99;62.48;98201.19;5027531;28;20454;-72
2023/07/14 01:47:51;;;;;;;3.30;2.57;;;16.20;70.00;;;15.96;62.32;98203.56;5028118;28;20461;-71
2023/07/14 01:50:27;;;;;;;2.87;2.67;;;16.20;70.10;;;16.03;62.54;98204.25;5039898;28;20529;-70
2023/07/14 01:53:00;;;;;;;2.70;2.43;;;16.30;70.10;;;15.99;62.11;98197.63;5032754;28;20503;-70
2023/07/14 01:55:32;;;;;;;3.00;2.77;;;16.20;69.70;;;15.95;62.49;98191.84;5033674;28;20832;-71
2023/07/14 01:58:06;;;;;;;3.37;2.47;;;16.30;70.10;;;15.91;62.32;98192.59;5030971;28;20453;-73
2023/07/14 02:00:33;;;;;;;3.30;2.70;;;16.20;70.00;;;15.82;62.53;98197.59;5046307;28;20937;-72
2023/07/14 02:03:01;;;;;;;3.23;2.50;;;16.10;70.00;;;15.80;63.00;98188.84;5026890;28;20569;-71
2023/07/14 02:05:34;;;;;;;2.90;2.53;;;16.00;70.40;;;15.83;63.42;98185.63;5027925;28;20456;-73
2023/07/14 02:08:04;;;;;;;2.60;2.40;;;16.00;71.00;;;15.73;62.90;98178.91;5032037;28;20497;-73
2023/07/14 02:10:32;;;;;;;3.27;2.70;;;16.00;71.00;;;15.74;63.31;98179.75;5028528;28;20477;-73
2023/07/14 02:13:02;;;;;;;3.47;2.60;;;16.00;71.60;;;15.52;64.19;98174.97;5027201;28;20549;-74
2023/07/14 02:15:33;;;;;;;2.30;2.13;;;15.80;72.40;;;15.35;64.58;98153.19;5050097;28;20945;-72
2023/07/14 02:18:02;;;;;;;2.70;2.30;;;15.80;73.00;;;15.50;64.56;98190.75;5036165;28;20472;-72
2023/07/14 02:20:34;;;;;;;2.93;2.63;;;15.80;73.40;;;15.43;64.32;98182.72;5026627;28;20447;-72
2023/07/14 02:23:04;;;;;;;3.23;2.53;;;15.70;73.20;;;15.28;64.18;98158.78;5029694;28;20522;-72
2023/07/14 02:25:39;;;;;;;2.67;2.07;;;15.70;73.10;;;15.41;64.31;98186.78;5027988;28;20448;-75
2023/07/14 02:28:09;;;;;;;3.53;2.60;;;15.60;73.20;;;15.34;64.84;98183.34;5035253;28;20533;-73
2023/07/14 02:30:38;;;;;;;3.10;2.90;;;15.60;73.60;;;15.23;64.92;98177.69;5033005;28;20451;-72
2023/07/14 02:33:12;;;;;;;4.17;3.30;;;15.60;74.20;;;15.00;65.20;98152.22;5025291;28;20778;-74
2023/07/14 02:35:47;;;;;;;6.60;2.77;;;15.50;74.20;;;15.21;65.62;98198.88;5059744;28;20464;-73
2023/07/14 02:38:17;;;;;;;3.53;3.00;;;15.50;74.60;;;15.05;65.41;98195.03;5028833;28;20457;-72
2023/07/14 02:40:50;;;;;;;4.17;3.03;;;15.40;75.10;;;15.09;65.99;98187.22;5026345;28;20514;-72
2023/07/14 02:43:21;;;;;;;3.37;3.07;;;15.40;75.40;;;14.99;65.72;98166.91;5031460;28;20461;-71
2023/07/14 02:45:56;;;;;;;2.50;2.40;;;15.40;75.60;;;15.07;65.84;98189.34;5026994;28;20457;-72
2023/07/14 02:48:31;;;;;;;3.50;2.47;;;15.30;75.80;;;14.97;66.71;98189.97;5060215;28;20551;-72
2023/07/14 02:50:59;;;;;;;3.93;2.70;;;15.30;76.00;;;14.96;66.32;98186.44;5039226;28;20464;-73
2023/07/14 02:53:26;;;;;;;3.07;2.77;;;15.20;76.40;;;14.75;66.87;98160.69;5026815;28;20573;-72
2023/07/14 02:55:53;;;;;;;3.27;3.00;;;15.20;76.50;;;14.91;66.77;98188.22;5025385;28;20527;-72
2023/07/14 02:58:23;;;;;;;3.37;3.07;;;15.20;76.80;;;14.82;67.14;98185.03;5020506;28;20459;-74
2023/07/14 03:00:50;;;;;;;2.73;2.53;;;15.10;77.10;;;14.85;66.64;98192.72;5026518;28;20454;-73
2023/07/14 03:03:19;;;;;;;4.90;3.10;;;15.10;77.20;;;14.81;67.04;98188.81;5033676;28;20459;-73
2023/07/14 03:05:48;;;;;;;2.80;2.60;;;15.10;77.20;;;14.71;67.06;98182.09;5027308;28;20466;-73
2023/07/14 03:08:18;;;;;;;8.77;3.37;;;15.10;77.50;;;14.70;66.93;98185.00;5025088;28;20490;-71
2023/07/14 03:10:47;;;;;;;6.20;3.07;;;15.00;77.40;;;14.64;67.03;98181.38;5027014;28;20455;-73
2023/07/14 03:13:17;;;;;;;2.83;2.47;;;15.00;77.60;;;14.59;67.32;98192.97;5037859;28;20527;-74
2023/07/14 03:15:46;;;;;;;2.80;2.60;;;14.90;77.70;;;14.57;67.44;98183.38;5034615;28;20496;-73
2023/07/14 03:18:14;;;;;;;2.80;2.60;;;14.90;77.90;;;14.48;68.11;98182.91;5026233;28;20492;-73
2023/07/14 03:20:42;;;;;;;3.17;2.87;;;14.90;78.10;;;14.39;67.69;98177.00;5034161;28;20465;-72
2023/07/14 03:23:09;;;;;;;2.80;2.57;;;14.80;78.30;;;14.55;67.91;98193.66;5024750;28;20494;-73
2023/07/14 03:25:37;;;;;;;5.80;3.40;;;14.80;78.60;;;14.47;67.97;98192.13;5059433;28;20464;-71
2023/07/14 03:28:05;;;;;;;3.40;3.00;;;14.80;78.60;;;14.43;67.95;98180.06;5041475;28;20843;-74
2023/07/14 03:30:40;;;;;;;4.50;3.40;;;14.80;78.60;;;14.52;67.98;98184.06;5040713;28;20539;-74
2023/07/14 03:33:09;;;;;;;3.63;2.60;;;14.80;78.70;;;14.47;68.06;98181.25;5022718;28;20455;-73
2023/07/14 03:35:36;;;;;;;2.80;2.47;;;14.80;78.80;;;14.48;68.29;98188.34;5047472;28;20475;-73
2023/07/14 03:38:04;;;;;;;3.30;3.00;;;14.80;79.30;;;14.45;68.50;98194.25;5029004;28;20979;-74
2023/07/14 03:40:31;;;;;;;3.20;2.90;;;14.80;79.40;;;14.47;68.12;98183.97;5031171;28;20516;-74
2023/07/14 03:42:59;;;;;;;6.23;3.20;;;14.80;79.20;;;14.39;68.59;98160.69;5033105;28;20874;-74
2023/07/14 03:45:26;;;;;;;2.70;2.50;;;14.80;79.30;;;14.54;68.51;98186.56;5029822;28;20456;-73
2023/07/14 03:47:54;;;;;;;3.73;3.17;;;14.80;79.20;;;14.55;68.08;98189.03;5033593;28;20862;-71
2023/07/14 03:50:23;;;;;;;3.33;3.03;;;14.90;79.30;;;14.55;67.86;98183.59;5068369;28;20476;-74
2023/07/14 03:52:52;;;;;;;3.57;3.13;;;14.90;79.00;;;14.52;68.43;98188.69;5029440;28;20561;-72
2023/07/14 03:55:19;;;;;;;3.90;3.43;;;14.90;79.00;;;14.41;68.06;98161.28;5027781;28;20447;-74
2023/07/14 03:57:46;;;;;;;3.30;3.00;;;14.90;78.90;;;14.48;68.48;98176.63;5030379;28;20538;-72
2023/07/14 04:00:18;;;;;;;4.73;2.83;;;14.90;79.00;;;14.39;68.22;98159.84;5025644;28;20461;-73
2023/07/14 04:02:46;;;;;;;5.43;3.40;;;14.90;79.00;;;14.56;68.21;98176.28;5025859;28;20485;-72
2023/07/14 04:05:15;;;;;;;3.27;2.97;;;15.00;79.00;;;14.50;68.30;98169.09;5029877;28;20497;-74
2023/07/14 04:07:45;;;;;;;3.07;2.70;;;15.00;78.70;;;14.67;67.51;98186.31;5062655;28;20758;-72
2023/07/14 04:10:13;;;;;;;3.40;2.87;;;15.10;78.80;;;14.79;67.09;98180.91;5035690;28;20458;-75
2023/07/14 04:12:40;;;;;;;3.30;2.67;;;15.10;78.50;;;14.93;66.97;98169.75;5029007;28;20542;-73
2023/07/14 04:15:09;;;;;;;3.80;3.50;;;15.30;78.20;;;15.02;66.73;98174.56;5061973;28;20455;-76
2023/07/14 04:17:36;;;;;;;3.93;2.43;;;15.40;77.90;;;15.36;65.03;98164.88;5032819;28;21132;-75
2023/07/14 04:20:05;;;;;;;2.90;2.67;;;15.70;76.90;;;15.50;64.35;98149.91;5037508;28;20447;-76
2023/07/14 04:22:32;;;;;;;3.93;3.00;;;16.10;75.90;;;16.06;63.06;98168.31;5019387;28;20483;-73
2023/07/14 04:25:02;;;;;;;6.47;2.90;;;16.50;74.80;;;16.46;61.92;98165.66;5029859;28;20954;-75
2023/07/14 04:27:29;;;;;;;3.27;2.97;;;17.00;73.70;;;16.80;60.56;98155.47;5029117;28;20450;-72
2023/07/14 04:29:59;;;;;;;4.53;3.80;;;17.40;72.70;;;16.99;59.96;98163.41;5045505;28;20457;-73
2023/07/14 04:32:26;;;;;;;3.00;2.80;;;17.70;71.80;;;17.09;58.89;98168.16;5036513;28;20459;-74
2023/07/14 04:34:53;;;;;;;3.57;3.23;;;17.80;70.70;;;16.88;59.57;98165.13;5033539;28;20446;-71
2023/07/14 04:37:21;;;;;;;3.30;3.00;;;17.70;70.60;;;16.74;60.14;98163.84;5039616;28;21032;-73
2023/07/14 04:39:48;;;;;;;2.70;2.30;;;17.40;71.00;;;16.48;61.09;98163.50;5028244;28;20441;-71
2023/07/14 04:42:16;;;;;;;3.80;3.20;;;17.10;71.50;;;16.12;62.42;98161.88;5026585;28;20464;-74
2023/07/14 04:44:43;;;;;;;3.90;2.57;;;16.80;72.20;;;16.19;61.73;98161.69;5053594;28;20476;-73
2023/07/14 04:47:11;;;;;;;3.10;2.80;;;16.70;72.40;;;16.37;61.44;98165.22;5034825;28;20856;-72
2023/07/14 04:49:38;;;;;;;2.70;2.50;;;16.70;72.40;;;16.52;61.75;98151.00;5047052;28;20449;-72
2023/07/14 04:52:05;;;;;;;3.57;3.07;;;16.90;72.50;;;16.91;60.16;98153.72;5044462;28;20954;-71
2023/07/14 04:54:35;;;;;;;5.33;3.40;;;17.30;71.90;;;17.68;57.90;98155.69;5031333;28;20452;-74
2023/07/14 04:57:02;;;;;;;5.50;3.50;;;18.00;70.80;;;18.40;55.83;98153.53;5030423;28;20484;-72
2023/07/14 04:59:32;;;;;;;3.30;3.00;;;18.90;69.10;;;18.36;55.83;98157.91;5034055;28;20514;-73
2023/07/14 05:01:59;;;;;;;3.60;2.60;;;19.10;67.90;;;18.47;55.33;98155.22;5033510;28;20488;-74
2023/07/14 05:04:29;;;;;;;3.20;2.70;;;19.20;67.40;;;18.22;55.69;98152.06;5031073;28;20471;-73
2023/07/14 05:06:56;;;;;;;2.93;2.73;;;19.00;67.40;;;17.94;56.49;98143.06;5028953;28;20457;-73
2023/07/14 05:09:25;;;;;;;2.90;2.53;;;18.70;67.70;;;17.73;57.06;98163.91;5038850;28;20451;-72
2023/07/14 05:11:52;;;;;;;7.93;3.40;;;18.40;67.90;;;17.64;57.70;98146.34;5027475;28;20462;-72
2023/07/14 05:14:19;;;;;;;3.60;3.20;;;18.10;68.60;;;17.55;57.72;98163.22;5033269;28;20461;-73
2023/07/14 05:16:48;;;;;;;3.00;2.70;;;18.00;68.90;;;17.22;58.96;98156.00;5034353;28;20529;-72
2023/07/14 05:19:15;;;;;;;4.70;4.10;;;17.80;69.30;;;17.27;59.05;98154.16;5044361;28;20459;-75
2023/07/14 05:21:42;;;;;;;3.03;2.70;;;17.70;70.10;;;17.36;58.85;98156.44;5026723;28;20454;-75
2023/07/14 05:24:09;;;;;;;5.20;3.53;;;17.70;69.70;;;17.40;58.50;98152.13;5058981;28;20484;-72
2023/07/14 05:26:38;;;;;;;3.07;2.77;;;17.80;69.70;;;17.53;58.51;98157.19;5030000;28;20458;-71
2023/07/14 05:29:08;;;;;;;3.57;3.00;;;17.90;69.60;;;17.78;57.78;98157.69;5035647;28;20517;-72
2023/07/14 05:31:35;;;;;;;3.63;3.33;;;18.10;69.20;;;17.83;57.28;98144.91;5051365;28;20462;-72
2023/07/14 05:34:04;;;;;;;2.80;2.60;;;18.30;68.80;;;18.20;56.64;98153.41;5058405;28;20593;-73
2023/07/14 05:36:31;;;;;;;6.93;5.07;;;18.60;68.50;;;18.21;55.87;98084.78;5035133;28;20524;-73
2023/07/14 05:38:58;;;;;;;10.63;6.27;;;19.00;68.30;;;19.38;53.70;98155.13;5031942;28;20458;-72
2023/07/14 05:41:26;;;;;;;3.40;2.67;;;19.70;67.00;;;20.21;51.44;98153.31;5026846;28;20503;-72
2023/07/14 05:43:53;;;;;;;3.47;3.17;;;20.50;65.60;;;20.72;49.47;98143.31;5039070;28;20491;-74
2023/07/14 05:46:20;;;;;;;4.63;2.90;;;21.00;63.80;;;21.23;48.08;98136.81;5027917;28;20455;-73
2023/07/14 05:48:47;;;;;;;3.20;2.90;;;21.30;62.90;;;21.86;46.56;98141.97;5026211;28;20531;-73
2023/07/14 05:51:16;;;;;;;4.13;3.20;;;22.00;61.30;;;21.90;46.06;98143.00;5025702;28;20492;-72
2023/07/14 05:53:43;;;;;;;3.20;2.73;;;22.30;60.00;;;21.44;46.95;98142.19;5029894;28;20569;-72
2023/07/14 05:56:11;;;;;;;3.43;2.77;;;22.10;59.90;;;21.85;46.15;98137.56;5027797;28;20926;-73
2023/07/14 05:58:39;;;;;;;4.13;3.00;;;22.50;59.30;;;21.73;46.07;98144.25;5043876;28;20932;-73
2023/07/14 06:01:07;;;;;;;2.93;2.60;;;22.20;58.70;;;22.28;45.07;98132.25;5034248;28;20837;-73
2023/07/14 06:03:34;;;;;;;3.30;3.00;;;22.60;58.80;;;23.36;42.93;98148.69;5023800;28;20483;-73
2023/07/14 06:06:06;;;;;;;5.30;2.83;;;23.40;57.80;;;23.85;41.76;98148.53;5027600;28;20532;-73
2023/07/14 06:08:34;;;;;;;4.37;2.57;;;24.00;57.00;;;23.21;42.36;98130.41;5043402;28;20993;-71
2023/07/14 06:11:03;;;;;;;3.10;2.60;;;24.00;56.00;;;23.55;42.12;98139.59;5025838;28;20461;-73
2023/07/14 06:13:30;;;;;;;4.00;2.90;;;24.30;55.50;;;24.71;39.59;98129.94;5026904;28;20465;-72
2023/07/14 06:15:57;;;;;;;3.07;2.70;;;24.90;54.90;;;23.34;42.24;98134.38;5029467;28;20454;-72
2023/07/14 06:18:25;;;;;;;2.80;2.60;;;24.40;54.60;;;23.27;42.09;98134.75;5027087;28;20520;-72
2023/07/14 06:20:52;;;;;;;3.00;2.70;;;24.30;54.30;;;22.72;43.00;98135.94;5026355;28;20449;-75
2023/07/14 06:23:19;;;;;;;3.37;2.80;;;23.60;54.60;;;22.34;44.03;98125.56;5060238;28;20464;-73
2023/07/14 06:25:48;;;;;;;4.70;2.60;;;23.20;54.90;;;22.14;44.56;98132.13;5042680;28;20457;-74
2023/07/14 06:28:16;;;;;;;3.43;2.30;;;22.90;55.10;;;22.76;43.71;98125.16;5026667;28;20469;-72
2023/07/14 06:30:43;;;;;;;2.70;2.50;;;22.90;55.40;;;21.78;45.21;98130.47;5027602;28;20458;-74
2023/07/14 06:33:12;;;;;;;2.43;2.23;;;22.50;55.10;;;22.29;44.59;98120.13;5025888;28;20857;-73
2023/07/14 06:35:40;;;;;;;4.10;2.47;;;22.50;55.60;;;22.01;44.61;98111.56;5034168;28;20453;-73
2023/07/14 06:38:08;;;;;;;3.13;2.60;;;22.60;55.20;;;21.16;45.48;98053.94;5047725;28;20474;-73
2023/07/14 06:40:35;;;;;;;2.33;2.20;;;22.20;55.20;;;21.97;44.08;98115.19;5034605;28;20524;-72
2023/07/14 06:43:07;;;;;;;2.53;2.30;;;22.30;55.00;;;21.73;44.71;98111.25;5028812;28;20447;-73
2023/07/14 06:45:34;;;;;;;3.53;2.63;;;22.30;55.00;;;21.82;44.30;98091.41;5028107;28;20516;-73
2023/07/14 06:48:01;;;;;;;2.37;2.10;;;22.10;55.20;;;22.88;42.96;98114.56;5024774;28;20558;-72
2023/07/14 06:50:29;;;;;;;2.47;2.03;;;22.60;55.30;;;23.25;42.14;98120.41;5026283;28;20489;-72
2023/07/14 06:52:56;;;;;;;1.93;1.83;;;23.00;54.90;;;23.10;42.35;98102.16;5025813;28;20447;-73
2023/07/14 06:55:23;;;;;;;4.47;2.03;;;23.10;54.70;;;23.28;41.81;98122.63;5025629;28;20874;-73
2023/07/14 06:57:50;;;;;;;1.77;1.60;;;23.20;54.30;;;23.19;41.51;98099.53;5027175;28;20503;-72
2023/07/14 07:00:24;;;;;;;2.77;2.33;;;23.30;54.20;;;23.00;41.68;98124.34;5034132;28;20457;-73
2023/07/14 07:02:51;;;;;;;3.60;1.80;;;23.20;53.80;;;23.42;41.33;98116.38;5040168;28;20486;-73
2023/07/14 07:05:18;;;;;;;1.77;1.53;;;23.30;54.00;;;23.04;42.58;98125.38;5032332;28;20971;-74
2023/07/14 07:07:48;;;;;;;3.47;2.20;;;23.30;54.30;;;23.02;42.54;98120.16;5028094;28;20527;-73
2023/07/14 07:10:15;;;;;;;2.77;1.77;;;23.40;54.20;;;22.93;42.86;98120.00;5020151;28;20507;-72
2023/07/14 07:12:43;;;;;;;2.10;1.70;;;23.20;54.30;;;22.62;42.46;98079.06;5015288;28;20523;-72
2023/07/14 07:15:11;;;;;;;2.63;1.60;;;23.30;53.90;;;23.06;41.80;98112.13;5035705;28;20497;-75
2023/07/14 07:17:41;;;;;;;2.70;2.10;;;23.30;53.70;;;23.21;41.87;98114.69;5025996;28;20549;-74
2023/07/14 07:20:10;;;;;;;1.70;1.60;;;23.30;53.70;;;24.06;41.07;98115.94;5033380;28;20517;-73
2023/07/14 07:22:37;;;;;;;2.20;1.70;;;23.90;54.10;;;24.15;40.24;98107.78;5025052;28;20999;-73
2023/07/14 07:25:06;;;;;;;2.07;1.73;;;24.30;53.60;;;23.78;41.19;98113.03;5029804;28;20932;-74
2023/07/14 07:27:33;;;;;;;2.43;2.10;;;24.20;53.40;;;24.33;39.40;98101.38;5030890;28;20451;-73
2023/07/14 07:30:01;;;;;;;2.33;1.60;;;24.30;52.90;;;24.03;39.62;98098.03;5021675;28;20453;-73
2023/07/14 07:32:29;;;;;;;3.10;1.70;;;24.20;52.40;;;24.19;38.67;98045.34;5033117;28;20811;-74
2023/07/14 07:35:00;;;;;;;1.53;1.43;;;24.40;52.30;;;24.59;38.35;98092.59;5027327;28;20454;-75
2023/07/14 07:37:28;;;;;;;2.97;1.40;;;24.50;52.20;;;24.54;38.53;98089.13;5042624;28;20827;-73
2023/07/14 07:39:56;;;;;;;1.83;1.30;;;24.70;52.00;;;23.97;38.44;98021.16;5033739;28;20453;-73
2023/07/14 07:42:24;;;;;;;3.60;2.00;;;24.50;51.80;;;24.78;38.61;98075.13;5031821;28;20518;-73
2023/07/14 07:44:52;;;;;;;3.57;1.70;;;24.70;52.20;;;24.72;37.78;98079.94;5070335;28;20455;-73
2023/07/14 07:47:19;;;;;;;2.00;1.90;;;24.80;51.40;;;24.55;38.87;98055.69;5030451;28;20461;-72
2023/07/14 07:49:46;;;;;;;1.73;1.60;;;24.80;52.00;;;24.79;38.02;98074.00;5033483;28;20505;-73
2023/07/14 07:52:15;;;;;;;2.20;1.50;;;25.00;51.80;;;25.46;36.58;98061.47;5028379;28;20465;-73
2023/07/14 07:54:43;;;;;;;1.43;1.33;;;25.40;51.30;;;25.01;37.72;98062.19;5025907;28;20453;-75
2023/07/14 07:57:11;;;;;;;3.10;1.80;;;25.00;51.10;;;25.70;36.23;98065.91;5026153;28;20482;-75
2023/07/14 07:59:41;;;;;;;3.70;2.50;;;25.60;50.90;;;25.76;36.18;98074.09;5026925;28;20541;-73
2023/07/14 08:02:09;;;;;;;2.00;1.60;;;25.90;50.30;;;26.11;35.31;98071.53;5033064;28;20455;-73
2023/07/14 08:04:36;;;;;;;2.30;1.13;;;26.10;50.10;;;25.76;34.82;98058.28;5027567;28;20454;-72
2023/07/14 08:07:06;;;;;;;1.83;1.30;;;25.80;49.20;;;26.35;34.10;98067.63;5031236;28;20457;-76
2023/07/14 08:09:35;;;;;;;1.60;1.50;;;26.20;49.00;;;25.60;35.43;98055.91;5050934;28;20457;-75
2023/07/14 08:12:03;;;;;;;1.73;1.23;;;26.10;49.20;;;26.54;34.76;98053.53;5025576;28;20465;-73
2023/07/14 08:14:31;;;;;;;1.60;1.50;;;26.20;49.60;;;26.76;33.90;98052.59;5027290;28;20468;-72
2023/07/14 08:16:58;;;;;;;1.77;1.30;;;26.60;49.00;;;26.91;33.09;98045.81;5023184;28;20483;-73
2023/07/14 08:19:26;;;;;;;1.30;1.20;;;26.90;48.40;;;25.86;34.18;98035.91;5029943;28;20468;-73
2023/07/14 08:21:53;;;;;;;1.30;1.20;;;26.30;48.10;;;26.42;32.98;98046.63;5031550;28;20517;-73
2023/07/14 08:24:20;;;;;;;4.60;1.23;;;26.50;47.70;;;25.95;34.33;98060.06;5034645;28;20902;-74
2023/07/14 08:26:49;;;;;;;1.30;1.10;;;26.20;47.70;;;26.44;32.68;98058.22;5058455;28;20450;-74
2023/07/14 08:29:16;;;;;;;1.40;1.17;;;26.30;47.20;;;25.84;32.75;98056.72;5029146;28;20446;-73
2023/07/14 08:31:45;;;;;;;1.73;1.50;;;26.10;46.70;;;26.03;33.27;98059.28;5027567;28;20445;-73
2023/07/14 08:34:12;;;;;;;1.23;1.13;;;26.00;47.20;;;25.72;33.49;98058.13;5030356;28;20453;-73
2023/07/14 08:36:39;;;;;;;1.67;1.47;;;25.80;47.10;;;26.04;33.29;98063.69;5028807;28;20453;-73
2023/07/14 08:39:07;;;;;;;1.20;0.90;;;26.00;47.40;;;26.03;32.40;98060.09;5036566;28;20950;-74
2023/07/14 08:41:40;;;;;;;2.13;1.70;;;26.10;46.50;;;26.20;32.03;98063.31;5036958;28;21289;-73
2023/07/14 08:44:36;;;;;;;1.73;1.33;;;26.20;46.10;;;26.45;31.75;98053.47;5029703;28;20458;-75
2023/07/14 08:47:12;;;;;;;1.50;1.40;;;26.30;46.20;;;26.42;31.79;98059.66;5031095;28;20450;-76
2023/07/14 08:49:50;;;;;;;1.40;1.30;;;26.50;46.20;;;26.27;32.09;98036.00;5029871;28;20461;-74
2023/07/14 08:52:23;;;;;;;1.30;1.13;;;26.20;46.20;;;26.06;32.51;98041.22;5029002;28;20503;-72
2023/07/14 08:55:02;;;;;;;3.37;1.33;;;26.20;46.40;;;26.16;32.42;98036.22;5031540;28;20462;-73
2023/07/14 08:57:30;;;;;;;2.57;1.37;;;26.30;46.40;;;25.41;32.91;98046.94;5029471;28;20474;-73
2023/07/14 09:00:03;;;;;;;1.60;1.20;;;25.90;46.10;;;25.14;34.03;98046.75;5029563;28;20463;-73
2023/07/14 09:02:37;;;;;;;1.70;1.60;;;25.40;46.50;;;24.67;33.52;97979.78;5032814;28;21103;-73
2023/07/14 09:05:13;;;;;;;2.17;1.90;;;25.20;46.10;;;25.07;33.59;98024.22;5036720;28;20580;-73
2023/07/14 09:07:40;;;;;;;1.20;1.10;;;25.40;46.50;;;25.64;33.26;98030.41;5043264;28;20457;-73
2023/07/14 09:10:11;;;;;;;1.80;1.60;;;25.60;46.60;;;26.30;32.13;98027.84;5028371;28;20491;-74
2023/07/14 09:12:51;;;;;;;3.43;1.30;;;26.00;46.30;;;26.70;31.46;98020.63;5030937;28;20988;-73
2023/07/14 09:15:24;;;;;;;1.57;1.47;;;26.40;46.00;;;26.54;31.61;98026.63;5023086;28;20949;-72
2023/07/14 09:18:10;;;;;;;1.70;1.13;;;26.60;45.70;;;26.67;31.41;98030.41;5043531;28;20469;-73
2023/07/14 09:20:55;;;;;;;1.50;1.40;;;26.50;45.70;;;26.61;30.65;98026.16;5036200;28;20942;-74
2023/07/14 09:23:47;;;;;;;1.47;1.37;;;26.70;44.90;;;26.88;30.38;98024.31;5032774;28;20450;-73
2023/07/14 09:26:19;;;;;;;2.30;1.33;;;26.70;44.90;;;27.30;29.82;98023.84;5039872;28;20458;-72
2023/07/14 09:28:50;;;;;;;2.13;1.20;;;27.00;44.80;;;25.86;30.98;98019.31;5028008;28;20509;-73
2023/07/14 09:31:37;;;;;;;1.37;1.10;;;26.40;44.30;;;26.45;30.70;98023.00;5030848;28;20448;-74
2023/07/14 09:34:13;;;;;;;1.50;1.40;;;26.30;44.80;;;25.98;31.01;97999.34;5029283;28;21032;-74
2023/07/14 09:36:40;;;;;;;1.40;1.30;;;26.30;44.50;;;26.49;30.67;98010.16;5028219;28;20473;-74
2023/07/14 09:39:27;;;;;;;1.27;1.10;;;26.40;44.60;;;26.00;30.76;98007.34;5027931;28;20830;-71
2023/07/14 09:41:59;;;;;;;1.97;1.37;;;26.30;43.90;;;26.01;30.26;97959.97;5026236;28;20545;-75
2023/07/14 09:44:26;;;;;;;1.50;1.27;;;26.30;44.20;;;26.79;29.55;97996.53;5041198;28;20899;-73
2023/07/14 09:46:55;;;;;;;1.70;1.20;;;26.50;44.00;;;26.76;28.80;97993.59;5049662;28;20885;-72
2023/07/14 09:49:36;;;;;;;1.73;1.40;;;26.70;43.20;;;27.06;28.63;97986.31;5028997;28;20465;-73
2023/07/14 09:52:13;;;;;;;2.10;1.03;;;26.90;43.30;;;27.06;28.70;97986.31;5027868;28;21444;-74
2023/07/14 09:54:52;;;;;;;4.10;1.40;;;27.20;43.10;;;25.95;30.91;97996.41;5031898;28;20461;-72
2023/07/14 09:57:23;;;;;;;2.43;1.60;;;26.30;43.60;;;25.97;31.17;97992.16;5020855;28;20468;-74
2023/07/14 09:59:55;;;;;;;1.97;1.47;;;26.10;44.10;;;26.77;30.08;97979.44;5035325;28;20442;-72
2023/07/14 10:02:30;;;;;;;1.47;1.37;;;26.50;44.40;;;26.44;30.20;97997.28;5058178;28;20476;-72
2023/07/14 10:05:03;;;;;;;1.20;1.10;;;26.50;43.80;;;26.57;30.75;97981.66;5027394;28;20453;-73
2023/07/14 10:07:40;;;;;;;1.90;1.50;;;26.60;44.40;;;26.51;30.52;97971.88;5037777;28;20457;-73
2023/07/14 10:10:15;;;;;;;1.40;1.07;;;26.50;44.20;;;26.76;29.58;97961.16;5027471;28;20465;-75
2023/07/14 10:12:47;;;;;;;1.13;1.03;;;26.70;43.80;;;26.78;30.00;97947.00;5025587;28;20442;-74
2023/07/14 10:15:31;;;;;;;1.93;1.30;;;26.70;43.80;;;26.92;29.48;97969.03;5030152;28;20981;-73
2023/07/14 10:18:03;;;;;;;1.60;1.20;;;26.80;43.60;;;26.87;30.05;97984.69;5032198;28;21072;-73
2023/07/14 10:20:32;;;;;;;1.70;1.13;;;26.90;43.80;;;26.82;30.06;97970.94;5036331;28;20799;-74
2023/07/14 10:23:00;;;;;;;2.47;1.43;;;26.90;43.70;;;26.81;29.61;97974.03;5027620;28;20789;-73
2023/07/14 10:25:30;;;;;;;1.87;1.37;;;26.70;43.60;;;27.11;29.27;97968.72;5030415;28;20733;-72
2023/07/14 10:28:05;;;;;;;3.03;1.80;;;26.80;43.50;;;27.14;29.18;97938.38;5028158;28;20458;-72
2023/07/14 10:30:58;;;;;;;2.17;1.67;;;27.30;43.60;;;26.37;30.99;97951.81;5033206;28;20448;-72
2023/07/14 10:33:34;;;;;;;1.70;1.60;;;26.50;44.00;;;26.99;29.84;97936.09;5043686;28;20497;-73